Logo AVAMET
Benvolgut visitant, si us plau, ingressa Recuperar contrasenya

Castelló de la Plana Port

Dades diàries. Acumulats / Últims 30 dies disponibles

Data Temperatura (°C) Humitat rel. (%) Pressió rel. (hPa) Vent (km/h) Precipitació
Mínima Mitjana Màxima Amplitud
tèrmica
Mínima Mitjana Màxima Mínima Mitjana Màxima Predom. Mitjana Ràfega
màxima
Total
(mm)
Índex-n
Mínima Mitjana Màxima Mínima Mitjana Màxima n
0 a 1
P0 max
mm 5'
Dades mensuals acumulades fins l'últim dia disponible
07/2019 22,3 24,0 26,2 26,1 25,8 27,4 28,4 6,1   11,7 69,2 8,6
Dades anuals acumulades fins l'últim dia disponible
2019 4,4 13,5 26,2 16,4 12,7 18,9 28,9 24,5   13,4 93,3 39,4
Últims 30 dies disponibles
19-07-2019 23,8     26,2     27,2 3,4 E 9,5 27,4 0,0
18-07-2019 22,8     25,8     27,1 4,3 WNW 11,3 32,2 0,0
14-07-2019 24,8     26,2     27,3 2,5 NE 12,2 38,6 0,0
13-07-2019 26,2     27,1     28,3 2,1 NE 14,6 40,2 0,0
12-07-2019 25,2     26,9     27,9 2,7 NE 10,0 24,1 0,0
11-07-2019 24,7     26,1     27,2 2,5 SE 9,7 24,1 0,0
10-07-2019 23,3     25,2     25,8 2,5 SE 12,1 40,2 0,0
09-07-2019 24,1     25,6     26,5 2,4 SE 14,3 37,0 0,0
08-07-2019 23,4     26,2     27,5 4,1 NE 13,5 41,8 6,8
07-07-2019 24,8     26,8     28,3 3,5 NE 14,6 69,2 1,8
06-07-2019 24,7     26,5     27,3 2,6 E 10,0 29,0 0,0
05-07-2019 23,5     26,2     27,7 4,2 ESE 10,8 30,6 0,0
04-07-2019 22,8     26,2     28,4 5,6 ENE 7,6 25,7 0,0
03-07-2019 22,3     25,9     27,9 5,6 ENE 8,4 24,1 0,0
02-07-2019 24,5     25,8     27,1 2,6 NNE 12,7 25,7 0,0
01-07-2019 23,5     25,3     26,8 3,3 NE 16,1 32,2 0,0
28-06-2019 21,1     25,1     28,9 7,8 SE 6,8 25,7 0,0
27-06-2019 22,4     24,6     27,0 4,6 NE 9,7 29,0 0,0
26-06-2019 23,0     24,1     24,8 1,8 NE 26,2 49,9 0,0
25-06-2019 21,0     23,2     23,9 2,9 NE 15,4 46,7 0,0
24-06-2019 22,1     23,2     23,9 1,8 NE 19,6 43,5 0,0
23-06-2019 20,8     22,7     24,3 3,5 SE 9,0 24,1 0,0
22-06-2019 20,5     22,3     24,6 4,1 ESE 9,8 30,6 0,0
21-06-2019 20,9     22,4     23,1 2,2 NE 14,8 33,8 0,0
20-06-2019 21,7     22,4     22,9 1,2 NE 18,0 33,8 0,0
19-06-2019 19,0     22,2     24,3 5,3 ENE 9,0 24,1 0,0
18-06-2019 19,9     21,8     22,9 3,0 ENE 10,3 24,1 0,0
17-06-2019 19,0     21,2     23,2 4,2 E 9,7 30,6 0,0
16-06-2019 20,1     21,0     22,2 2,1 E 11,9 33,8 0,0
15-06-2019 19,9     21,3     22,6 2,7 E 12,2 33,8 0,0
Últims 13 mesos disponibles
06/2019 14,2 19,5 23,0 21,6 19,8 23,3 28,9 14,7 NE 13,4 74,0 0,2
05/2019 11,7 15,6 18,3 18,0 16,7 20,0 27,4 15,7 NE 13,6 70,8 6,6
04/2019 9,7 13,0 14,9 15,3 14,4 17,5 22,1 12,4 NNE 19,2 78,9 16,2
03/2019 8,6 10,9 13,5 14,2 14,4 16,7 23,9 15,3 WNW 12,1 64,4 6,0
02/2019 6,1 8,6 12,1 12,0 12,7 14,7 18,7 12,6 WNW 10,9 93,3 0,4
01/2019 4,4 7,9 10,5 12,0 12,8 14,8 16,8 12,4 W 12,3 90,1 1,4
12/2018 5,9 10,4 13,5 13,9 13,3 16,9 20,1 14,2 WNW 8,5 75,6 4,0
11/2018 9,3 13,1 17,8 15,9 16,5 18,9 21,1 11,8 W 14,5 61,2 62,4
10/2018 10,1 16,8 20,7 19,8 15,4 22,3 26,3 16,2 WNW 14,4 80,5 89,6
09/2018 18,7 21,6 23,9 24,5 24,2 26,5 28,9 10,2 W 10,9 56,3 41,6
08/2018 21,0 24,0 27,6 26,5 25,8 28,4 32,8 11,8 ENE 11,3 85,3 7,2
07/2018 20,8 23,8 25,6 26,1 26,0 27,6 31,1 10,3 NE 11,1 53,1
06/2018 16,1 20,3 24,1 22,7 21,3 24,5 27,3 11,2 E 11,8 61,2 3,0
Tots els anys disponibles
2017 5,9 12,5 20,8 15,9 11,6 18,8 24,7 18,8 12,2 93,3 12,2
2016 5,4 16,0 26,2 18,6 11,6 20,7 31,4 26,0 11,5 82,1 244,8
Temperatura (°C)
Humitat relativa (%)
Velocitat del vent i ràfega màxima (km/h)
Direcció del vent (°)
Pressió (hPa)
Precipitació (mm)
Nota sobre les dades: s'avisa a l'usuari de la provisionalitat i no oficialitat d'aquestes dades
Logo AVAMET blanc
Web allotjada a Sollutia
Llicència de Creative CommonsLa web d'AVAMET i els seus continguts estan subjectes a una llicència de
Reconeixement - No Comercial - Compartir igual
Properes estacions: Altea - Club Nàutic d'Altea (Soci), Ares del Maestrat (Ajuntament Soci),      - - - - -      Últimes estacions: Catadau - Urb. Lloma Molina (Inforatge), Ontinyent - El Pilar (Soci), Asp - Poliesportiu (Soci) - - -